sensor_id;sensor_type;location;lat;lon;timestamp;temperature;humidity
40556;DHT22;26250;45.422;11.100;2024-02-21T00:00:35;9.60;99.90
40556;DHT22;26250;45.422;11.100;2024-02-21T00:03:02;9.70;99.90
40556;DHT22;26250;45.422;11.100;2024-02-21T00:05:31;9.30;99.90
40556;DHT22;26250;45.422;11.100;2024-02-21T00:07:59;9.30;99.90
40556;DHT22;26250;45.422;11.100;2024-02-21T00:10:26;9.20;99.90
40556;DHT22;26250;45.422;11.100;2024-02-21T00:12:54;9.30;99.90
40556;DHT22;26250;45.422;11.100;2024-02-21T00:15:20;9.10;99.90
40556;DHT22;26250;45.422;11.100;2024-02-21T00:17:48;9.20;99.90
40556;DHT22;26250;45.422;11.100;2024-02-21T00:20:15;9.20;99.90
40556;DHT22;26250;45.422;11.100;2024-02-21T00:22:42;9.10;99.90
40556;DHT22;26250;45.422;11.100;2024-02-21T00:25:10;9.10;99.90
40556;DHT22;26250;45.422;11.100;2024-02-21T00:27:37;9.20;99.90
40556;DHT22;26250;45.422;11.100;2024-02-21T00:30:04;9.10;99.90
40556;DHT22;26250;45.422;11.100;2024-02-21T00:32:31;9.20;99.90
40556;DHT22;26250;45.422;11.100;2024-02-21T00:35:00;9.40;99.90
40556;DHT22;26250;45.422;11.100;2024-02-21T00:37:28;9.40;99.90
40556;DHT22;26250;45.422;11.100;2024-02-21T00:39:55;9.40;99.90
40556;DHT22;26250;45.422;11.100;2024-02-21T00:42:22;9.20;99.90
40556;DHT22;26250;45.422;11.100;2024-02-21T00:44:48;9.10;99.90
40556;DHT22;26250;45.422;11.100;2024-02-21T00:47:15;9.10;99.90
40556;DHT22;26250;45.422;11.100;2024-02-21T00:49:42;9.10;99.90
40556;DHT22;26250;45.422;11.100;2024-02-21T00:52:09;9.20;99.90
40556;DHT22;26250;45.422;11.100;2024-02-21T00:54:36;9.30;99.90
40556;DHT22;26250;45.422;11.100;2024-02-21T00:57:16;9.40;99.90
40556;DHT22;26250;45.422;11.100;2024-02-21T00:59:43;9.20;99.90
40556;DHT22;26250;45.422;11.100;2024-02-21T01:02:10;9.00;99.90
40556;DHT22;26250;45.422;11.100;2024-02-21T01:04:37;8.90;99.90
40556;DHT22;26250;45.422;11.100;2024-02-21T01:07:04;8.80;99.90
40556;DHT22;26250;45.422;11.100;2024-02-21T01:09:31;8.50;99.90
40556;DHT22;26250;45.422;11.100;2024-02-21T01:11:58;8.70;99.90
40556;DHT22;26250;45.422;11.100;2024-02-21T01:14:25;8.80;99.90
40556;DHT22;26250;45.422;11.100;2024-02-21T01:16:52;8.70;99.90
40556;DHT22;26250;45.422;11.100;2024-02-21T01:19:19;8.90;99.90
40556;DHT22;26250;45.422;11.100;2024-02-21T01:21:46;8.90;99.90
40556;DHT22;26250;45.422;11.100;2024-02-21T01:24:13;8.90;99.90
40556;DHT22;26250;45.422;11.100;2024-02-21T01:26:40;8.90;99.90
40556;DHT22;26250;45.422;11.100;2024-02-21T01:29:08;9.00;99.90
40556;DHT22;26250;45.422;11.100;2024-02-21T01:31:34;9.00;99.90
40556;DHT22;26250;45.422;11.100;2024-02-21T01:34:01;9.00;99.90
40556;DHT22;26250;45.422;11.100;2024-02-21T01:36:28;9.00;99.90
40556;DHT22;26250;45.422;11.100;2024-02-21T01:38:55;8.80;99.90
40556;DHT22;26250;45.422;11.100;2024-02-21T01:41:22;8.60;99.90
40556;DHT22;26250;45.422;11.100;2024-02-21T01:43:49;8.70;99.90
40556;DHT22;26250;45.422;11.100;2024-02-21T01:46:16;8.70;99.90
40556;DHT22;26250;45.422;11.100;2024-02-21T01:48:43;8.80;99.90
40556;DHT22;26250;45.422;11.100;2024-02-21T01:51:13;8.60;99.90
40556;DHT22;26250;45.422;11.100;2024-02-21T01:53:43;8.60;99.90
40556;DHT22;26250;45.422;11.100;2024-02-21T01:56:12;8.50;99.90
40556;DHT22;26250;45.422;11.100;2024-02-21T01:58:42;8.40;99.90
40556;DHT22;26250;45.422;11.100;2024-02-21T02:01:10;8.40;99.90
40556;DHT22;26250;45.422;11.100;2024-02-21T02:03:37;8.60;99.90
40556;DHT22;26250;45.422;11.100;2024-02-21T02:06:05;8.60;99.90
40556;DHT22;26250;45.422;11.100;2024-02-21T02:08:33;8.70;99.90
40556;DHT22;26250;45.422;11.100;2024-02-21T02:11:00;8.70;99.90
40556;DHT22;26250;45.422;11.100;2024-02-21T02:13:27;8.80;99.90
40556;DHT22;26250;45.422;11.100;2024-02-21T02:15:54;8.50;99.90
40556;DHT22;26250;45.422;11.100;2024-02-21T02:18:21;8.40;99.90
40556;DHT22;26250;45.422;11.100;2024-02-21T02:20:49;8.40;99.90
40556;DHT22;26250;45.422;11.100;2024-02-21T02:23:23;8.20;99.90
40556;DHT22;26250;45.422;11.100;2024-02-21T02:25:50;8.20;99.90
40556;DHT22;26250;45.422;11.100;2024-02-21T02:28:21;8.30;99.90
40556;DHT22;26250;45.422;11.100;2024-02-21T02:30:49;8.40;99.90
40556;DHT22;26250;45.422;11.100;2024-02-21T02:33:16;8.60;99.90
40556;DHT22;26250;45.422;11.100;2024-02-21T02:35:46;8.50;99.90
40556;DHT22;26250;45.422;11.100;2024-02-21T02:38:14;8.50;99.90
40556;DHT22;26250;45.422;11.100;2024-02-21T02:40:42;8.50;99.90
40556;DHT22;26250;45.422;11.100;2024-02-21T02:43:09;8.30;99.90
40556;DHT22;26250;45.422;11.100;2024-02-21T02:45:36;8.00;99.90
40556;DHT22;26250;45.422;11.100;2024-02-21T02:48:03;8.00;99.90
40556;DHT22;26250;45.422;11.100;2024-02-21T02:50:31;8.10;99.90
40556;DHT22;26250;45.422;11.100;2024-02-21T02:52:58;8.20;99.90
40556;DHT22;26250;45.422;11.100;2024-02-21T02:55:25;8.20;99.90
40556;DHT22;26250;45.422;11.100;2024-02-21T02:57:54;8.20;99.90
40556;DHT22;26250;45.422;11.100;2024-02-21T03:00:22;8.20;99.90
40556;DHT22;26250;45.422;11.100;2024-02-21T03:02:49;7.90;99.90
40556;DHT22;26250;45.422;11.100;2024-02-21T03:05:19;8.00;99.90
40556;DHT22;26250;45.422;11.100;2024-02-21T03:07:46;8.10;99.90
40556;DHT22;26250;45.422;11.100;2024-02-21T03:10:14;8.20;99.90
40556;DHT22;26250;45.422;11.100;2024-02-21T03:12:44;8.30;99.90
40556;DHT22;26250;45.422;11.100;2024-02-21T03:15:12;8.10;99.90
40556;DHT22;26250;45.422;11.100;2024-02-21T03:17:40;8.10;99.90
40556;DHT22;26250;45.422;11.100;2024-02-21T03:20:07;8.10;99.90
40556;DHT22;26250;45.422;11.100;2024-02-21T03:22:40;8.10;99.90
40556;DHT22;26250;45.422;11.100;2024-02-21T03:25:08;8.00;99.90
40556;DHT22;26250;45.422;11.100;2024-02-21T03:27:36;7.90;99.90
40556;DHT22;26250;45.422;11.100;2024-02-21T03:30:03;7.80;99.90
40556;DHT22;26250;45.422;11.100;2024-02-21T03:32:31;8.00;99.90
40556;DHT22;26250;45.422;11.100;2024-02-21T03:34:58;7.90;99.90
40556;DHT22;26250;45.422;11.100;2024-02-21T03:37:25;8.00;99.90
40556;DHT22;26250;45.422;11.100;2024-02-21T03:39:52;8.00;99.90
40556;DHT22;26250;45.422;11.100;2024-02-21T03:42:19;8.10;99.90
40556;DHT22;26250;45.422;11.100;2024-02-21T03:44:46;7.90;99.90
40556;DHT22;26250;45.422;11.100;2024-02-21T03:47:13;7.90;99.90
40556;DHT22;26250;45.422;11.100;2024-02-21T03:49:39;7.90;99.90
40556;DHT22;26250;45.422;11.100;2024-02-21T03:52:07;8.10;99.90
40556;DHT22;26250;45.422;11.100;2024-02-21T03:54:35;8.10;99.90
40556;DHT22;26250;45.422;11.100;2024-02-21T03:57:02;8.00;99.90
40556;DHT22;26250;45.422;11.100;2024-02-21T03:59:29;8.00;99.90
40556;DHT22;26250;45.422;11.100;2024-02-21T04:01:56;7.90;99.90
40556;DHT22;26250;45.422;11.100;2024-02-21T04:04:23;7.60;99.90
40556;DHT22;26250;45.422;11.100;2024-02-21T04:06:51;7.50;99.90
40556;DHT22;26250;45.422;11.100;2024-02-21T04:09:18;7.50;99.90
40556;DHT22;26250;45.422;11.100;2024-02-21T04:11:45;7.50;99.90
40556;DHT22;26250;45.422;11.100;2024-02-21T04:14:12;7.50;99.90
40556;DHT22;26250;45.422;11.100;2024-02-21T04:16:39;7.50;99.90
40556;DHT22;26250;45.422;11.100;2024-02-21T04:19:07;7.30;99.90
40556;DHT22;26250;45.422;11.100;2024-02-21T04:21:35;7.30;99.90
40556;DHT22;26250;45.422;11.100;2024-02-21T04:24:03;7.40;99.90
40556;DHT22;26250;45.422;11.100;2024-02-21T04:26:33;7.50;99.90
40556;DHT22;26250;45.422;11.100;2024-02-21T04:29:00;7.30;99.90
40556;DHT22;26250;45.422;11.100;2024-02-21T04:31:27;7.30;99.90
40556;DHT22;26250;45.422;11.100;2024-02-21T04:33:55;7.40;99.90
40556;DHT22;26250;45.422;11.100;2024-02-21T04:36:22;7.40;99.90
40556;DHT22;26250;45.422;11.100;2024-02-21T04:38:49;7.50;99.90
40556;DHT22;26250;45.422;11.100;2024-02-21T04:41:16;7.60;99.90
40556;DHT22;26250;45.422;11.100;2024-02-21T04:43:46;7.60;99.90
40556;DHT22;26250;45.422;11.100;2024-02-21T04:46:13;7.50;99.90
40556;DHT22;26250;45.422;11.100;2024-02-21T04:48:40;7.40;99.90
40556;DHT22;26250;45.422;11.100;2024-02-21T04:51:07;7.40;99.90
40556;DHT22;26250;45.422;11.100;2024-02-21T04:53:34;7.40;99.90
40556;DHT22;26250;45.422;11.100;2024-02-21T04:56:01;7.40;99.90
40556;DHT22;26250;45.422;11.100;2024-02-21T04:58:28;7.40;99.90
40556;DHT22;26250;45.422;11.100;2024-02-21T05:00:55;7.50;99.90
40556;DHT22;26250;45.422;11.100;2024-02-21T05:03:22;7.50;99.90
40556;DHT22;26250;45.422;11.100;2024-02-21T05:05:49;7.50;99.90
40556;DHT22;26250;45.422;11.100;2024-02-21T05:08:17;7.20;99.90
40556;DHT22;26250;45.422;11.100;2024-02-21T05:10:44;7.10;99.90
40556;DHT22;26250;45.422;11.100;2024-02-21T05:13:11;7.10;99.90
40556;DHT22;26250;45.422;11.100;2024-02-21T05:15:37;7.20;99.90
40556;DHT22;26250;45.422;11.100;2024-02-21T05:18:04;7.10;99.90
40556;DHT22;26250;45.422;11.100;2024-02-21T05:20:31;7.20;99.90
40556;DHT22;26250;45.422;11.100;2024-02-21T05:22:58;7.30;99.90
40556;DHT22;26250;45.422;11.100;2024-02-21T05:25:26;7.20;99.90
40556;DHT22;26250;45.422;11.100;2024-02-21T05:27:53;7.20;99.90
40556;DHT22;26250;45.422;11.100;2024-02-21T05:30:20;7.20;99.90
40556;DHT22;26250;45.422;11.100;2024-02-21T05:32:47;7.30;99.90
40556;DHT22;26250;45.422;11.100;2024-02-21T05:35:14;7.30;99.90
40556;DHT22;26250;45.422;11.100;2024-02-21T05:37:41;7.20;99.90
40556;DHT22;26250;45.422;11.100;2024-02-21T05:40:09;7.30;99.90
40556;DHT22;26250;45.422;11.100;2024-02-21T05:42:39;7.30;99.90
40556;DHT22;26250;45.422;11.100;2024-02-21T05:45:06;7.40;99.90
40556;DHT22;26250;45.422;11.100;2024-02-21T05:47:33;7.40;99.90
40556;DHT22;26250;45.422;11.100;2024-02-21T05:50:00;7.40;99.90
40556;DHT22;26250;45.422;11.100;2024-02-21T05:52:27;7.50;99.90
40556;DHT22;26250;45.422;11.100;2024-02-21T05:54:54;7.30;99.90
40556;DHT22;26250;45.422;11.100;2024-02-21T05:57:21;7.30;99.90
40556;DHT22;26250;45.422;11.100;2024-02-21T05:59:48;7.10;99.90
40556;DHT22;26250;45.422;11.100;2024-02-21T06:02:15;7.00;99.90
40556;DHT22;26250;45.422;11.100;2024-02-21T06:04:42;7.00;99.90
40556;DHT22;26250;45.422;11.100;2024-02-21T06:07:10;7.10;99.90
40556;DHT22;26250;45.422;11.100;2024-02-21T06:09:37;7.00;99.90
40556;DHT22;26250;45.422;11.100;2024-02-21T06:12:04;7.10;99.90
40556;DHT22;26250;45.422;11.100;2024-02-21T06:14:31;7.30;99.90
40556;DHT22;26250;45.422;11.100;2024-02-21T06:16:58;7.40;99.90
40556;DHT22;26250;45.422;11.100;2024-02-21T06:19:25;7.40;99.90
40556;DHT22;26250;45.422;11.100;2024-02-21T06:21:52;7.30;99.90
40556;DHT22;26250;45.422;11.100;2024-02-21T06:24:19;7.10;99.90
40556;DHT22;26250;45.422;11.100;2024-02-21T06:26:46;7.20;99.90
40556;DHT22;26250;45.422;11.100;2024-02-21T06:29:13;7.20;99.90
40556;DHT22;26250;45.422;11.100;2024-02-21T06:31:40;7.20;99.90
40556;DHT22;26250;45.422;11.100;2024-02-21T06:34:07;7.30;99.90
40556;DHT22;26250;45.422;11.100;2024-02-21T06:36:34;7.40;99.90
40556;DHT22;26250;45.422;11.100;2024-02-21T06:39:01;7.40;99.90
40556;DHT22;26250;45.422;11.100;2024-02-21T06:41:28;7.50;99.90
40556;DHT22;26250;45.422;11.100;2024-02-21T06:43:57;7.60;99.90
40556;DHT22;26250;45.422;11.100;2024-02-21T06:46:25;7.70;99.90
40556;DHT22;26250;45.422;11.100;2024-02-21T06:48:53;7.80;99.90
40556;DHT22;26250;45.422;11.100;2024-02-21T06:51:20;7.90;99.90
40556;DHT22;26250;45.422;11.100;2024-02-21T06:53:47;7.90;99.90
40556;DHT22;26250;45.422;11.100;2024-02-21T06:56:14;7.70;99.90
40556;DHT22;26250;45.422;11.100;2024-02-21T06:58:41;7.50;99.90
40556;DHT22;26250;45.422;11.100;2024-02-21T07:01:08;7.40;99.90
40556;DHT22;26250;45.422;11.100;2024-02-21T07:03:36;7.70;99.90
40556;DHT22;26250;45.422;11.100;2024-02-21T07:06:03;7.70;99.90
40556;DHT22;26250;45.422;11.100;2024-02-21T07:08:30;8.10;99.90
40556;DHT22;26250;45.422;11.100;2024-02-21T07:10:57;8.40;99.90
40556;DHT22;26250;45.422;11.100;2024-02-21T07:13:24;8.50;99.90
40556;DHT22;26250;45.422;11.100;2024-02-21T07:15:51;8.40;99.90
40556;DHT22;26250;45.422;11.100;2024-02-21T07:18:18;8.40;99.90
40556;DHT22;26250;45.422;11.100;2024-02-21T07:20:46;8.30;99.90
40556;DHT22;26250;45.422;11.100;2024-02-21T07:23:13;8.40;99.90
40556;DHT22;26250;45.422;11.100;2024-02-21T07:25:39;8.50;99.90
40556;DHT22;26250;45.422;11.100;2024-02-21T07:28:06;8.70;99.90
40556;DHT22;26250;45.422;11.100;2024-02-21T07:30:34;9.00;99.90
40556;DHT22;26250;45.422;11.100;2024-02-21T07:33:00;9.20;99.90
40556;DHT22;26250;45.422;11.100;2024-02-21T07:35:27;9.20;99.90
40556;DHT22;26250;45.422;11.100;2024-02-21T07:37:54;9.60;99.90
40556;DHT22;26250;45.422;11.100;2024-02-21T07:40:22;9.90;99.90
40556;DHT22;26250;45.422;11.100;2024-02-21T07:42:50;9.90;99.90
40556;DHT22;26250;45.422;11.100;2024-02-21T07:45:18;9.80;99.90
40556;DHT22;26250;45.422;11.100;2024-02-21T07:47:45;9.90;99.90
40556;DHT22;26250;45.422;11.100;2024-02-21T07:50:12;9.90;99.90
40556;DHT22;26250;45.422;11.100;2024-02-21T07:52:39;10.10;99.90
40556;DHT22;26250;45.422;11.100;2024-02-21T07:55:07;10.40;99.90
40556;DHT22;26250;45.422;11.100;2024-02-21T07:57:34;10.50;99.90
40556;DHT22;26250;45.422;11.100;2024-02-21T08:00:01;10.80;99.90
40556;DHT22;26250;45.422;11.100;2024-02-21T08:02:38;10.80;99.90
40556;DHT22;26250;45.422;11.100;2024-02-21T08:05:05;11.00;99.90
40556;DHT22;26250;45.422;11.100;2024-02-21T08:07:32;11.10;99.90
40556;DHT22;26250;45.422;11.100;2024-02-21T08:09:59;11.20;99.90
40556;DHT22;26250;45.422;11.100;2024-02-21T08:12:26;11.20;99.90
40556;DHT22;26250;45.422;11.100;2024-02-21T08:14:53;11.40;99.90
40556;DHT22;26250;45.422;11.100;2024-02-21T08:17:20;11.60;99.90
40556;DHT22;26250;45.422;11.100;2024-02-21T08:19:48;11.70;99.90
40556;DHT22;26250;45.422;11.100;2024-02-21T08:22:16;12.00;99.90
40556;DHT22;26250;45.422;11.100;2024-02-21T08:24:43;12.30;99.90
40556;DHT22;26250;45.422;11.100;2024-02-21T08:27:10;12.50;99.90
40556;DHT22;26250;45.422;11.100;2024-02-21T08:29:37;12.50;99.90
40556;DHT22;26250;45.422;11.100;2024-02-21T08:32:04;12.60;99.90
40556;DHT22;26250;45.422;11.100;2024-02-21T08:34:31;12.60;99.90
40556;DHT22;26250;45.422;11.100;2024-02-21T08:37:01;12.80;99.90
40556;DHT22;26250;45.422;11.100;2024-02-21T08:39:27;12.90;99.90
40556;DHT22;26250;45.422;11.100;2024-02-21T08:41:56;12.80;99.90
40556;DHT22;26250;45.422;11.100;2024-02-21T08:44:24;13.00;99.90
40556;DHT22;26250;45.422;11.100;2024-02-21T08:46:53;13.10;99.90
40556;DHT22;26250;45.422;11.100;2024-02-21T08:49:20;13.20;99.90
40556;DHT22;26250;45.422;11.100;2024-02-21T08:51:47;13.10;99.90
40556;DHT22;26250;45.422;11.100;2024-02-21T08:54:15;13.20;99.90
40556;DHT22;26250;45.422;11.100;2024-02-21T08:56:41;13.10;99.90
40556;DHT22;26250;45.422;11.100;2024-02-21T08:59:08;13.30;99.90
40556;DHT22;26250;45.422;11.100;2024-02-21T09:01:36;13.40;99.90
40556;DHT22;26250;45.422;11.100;2024-02-21T09:04:03;13.40;99.90
40556;DHT22;26250;45.422;11.100;2024-02-21T09:06:32;13.40;99.90
40556;DHT22;26250;45.422;11.100;2024-02-21T09:09:00;13.50;99.90
40556;DHT22;26250;45.422;11.100;2024-02-21T09:11:27;13.40;99.90
40556;DHT22;26250;45.422;11.100;2024-02-21T09:13:55;13.30;99.90
40556;DHT22;26250;45.422;11.100;2024-02-21T09:16:22;13.40;99.90
40556;DHT22;26250;45.422;11.100;2024-02-21T09:18:50;13.40;99.90
40556;DHT22;26250;45.422;11.100;2024-02-21T09:21:18;13.20;99.90
40556;DHT22;26250;45.422;11.100;2024-02-21T09:23:45;13.30;99.90
40556;DHT22;26250;45.422;11.100;2024-02-21T09:26:12;13.50;99.90
40556;DHT22;26250;45.422;11.100;2024-02-21T09:28:43;13.50;99.90
40556;DHT22;26250;45.422;11.100;2024-02-21T09:31:14;13.70;99.90
40556;DHT22;26250;45.422;11.100;2024-02-21T09:33:41;13.70;99.90
40556;DHT22;26250;45.422;11.100;2024-02-21T09:36:08;13.80;99.90
40556;DHT22;26250;45.422;11.100;2024-02-21T09:38:35;13.90;99.90
40556;DHT22;26250;45.422;11.100;2024-02-21T09:41:25;13.90;99.90
40556;DHT22;26250;45.422;11.100;2024-02-21T09:43:52;13.70;99.90
40556;DHT22;26250;45.422;11.100;2024-02-21T09:46:44;13.80;99.90
40556;DHT22;26250;45.422;11.100;2024-02-21T09:51:40;13.90;99.90
40556;DHT22;26250;45.422;11.100;2024-02-21T09:54:08;14.00;99.90
40556;DHT22;26250;45.422;11.100;2024-02-21T09:56:45;13.90;99.90
40556;DHT22;26250;45.422;11.100;2024-02-21T09:59:15;14.00;99.90
40556;DHT22;26250;45.422;11.100;2024-02-21T10:01:45;14.10;99.90
40556;DHT22;26250;45.422;11.100;2024-02-21T10:04:15;14.20;99.50
40556;DHT22;26250;45.422;11.100;2024-02-21T10:06:43;14.30;99.50
40556;DHT22;26250;45.422;11.100;2024-02-21T10:09:26;14.30;99.90
40556;DHT22;26250;45.422;11.100;2024-02-21T10:11:56;14.40;99.90
40556;DHT22;26250;45.422;11.100;2024-02-21T10:14:33;14.40;99.90
40556;DHT22;26250;45.422;11.100;2024-02-21T10:17:00;14.60;99.90
40556;DHT22;26250;45.422;11.100;2024-02-21T10:19:28;14.40;99.90
40556;DHT22;26250;45.422;11.100;2024-02-21T10:24:35;14.30;99.90
40556;DHT22;26250;45.422;11.100;2024-02-21T10:27:08;14.30;99.90
40556;DHT22;26250;45.422;11.100;2024-02-21T10:29:37;14.30;99.90
40556;DHT22;26250;45.422;11.100;2024-02-21T10:32:08;14.40;99.90
40556;DHT22;26250;45.422;11.100;2024-02-21T10:34:37;14.40;99.90
40556;DHT22;26250;45.422;11.100;2024-02-21T10:37:06;14.50;99.90
40556;DHT22;26250;45.422;11.100;2024-02-21T10:39:34;14.60;99.90
40556;DHT22;26250;45.422;11.100;2024-02-21T10:42:02;14.50;99.90
40556;DHT22;26250;45.422;11.100;2024-02-21T10:44:32;14.70;99.90
40556;DHT22;26250;45.422;11.100;2024-02-21T10:46:59;14.80;99.90
40556;DHT22;26250;45.422;11.100;2024-02-21T10:49:27;15.10;99.90
40556;DHT22;26250;45.422;11.100;2024-02-21T10:52:17;15.10;99.90
40556;DHT22;26250;45.422;11.100;2024-02-21T10:54:55;15.10;99.90
40556;DHT22;26250;45.422;11.100;2024-02-21T10:57:24;15.00;99.90
40556;DHT22;26250;45.422;11.100;2024-02-21T10:59:51;14.80;99.90
40556;DHT22;26250;45.422;11.100;2024-02-21T11:02:19;14.80;99.90
40556;DHT22;26250;45.422;11.100;2024-02-21T11:04:48;14.90;99.90
40556;DHT22;26250;45.422;11.100;2024-02-21T11:07:16;15.20;99.90
40556;DHT22;26250;45.422;11.100;2024-02-21T11:09:51;14.90;99.90
40556;DHT22;26250;45.422;11.100;2024-02-21T11:12:23;14.90;99.90
40556;DHT22;26250;45.422;11.100;2024-02-21T11:14:50;14.90;99.90
40556;DHT22;26250;45.422;11.100;2024-02-21T11:17:18;15.10;99.90
40556;DHT22;26250;45.422;11.100;2024-02-21T11:19:46;15.00;99.90
40556;DHT22;26250;45.422;11.100;2024-02-21T11:22:17;15.00;99.90
40556;DHT22;26250;45.422;11.100;2024-02-21T11:24:45;14.70;99.90
40556;DHT22;26250;45.422;11.100;2024-02-21T11:29:53;14.90;99.90
40556;DHT22;26250;45.422;11.100;2024-02-21T11:32:21;15.10;99.90
40556;DHT22;26250;45.422;11.100;2024-02-21T11:35:01;15.20;99.90
40556;DHT22;26250;45.422;11.100;2024-02-21T11:37:31;14.80;99.90
40556;DHT22;26250;45.422;11.100;2024-02-21T11:40:04;15.00;99.90
40556;DHT22;26250;45.422;11.100;2024-02-21T11:42:33;15.10;99.90
40556;DHT22;26250;45.422;11.100;2024-02-21T11:45:00;15.30;99.90
40556;DHT22;26250;45.422;11.100;2024-02-21T11:47:30;15.20;99.90
40556;DHT22;26250;45.422;11.100;2024-02-21T11:49:57;15.10;99.90
40556;DHT22;26250;45.422;11.100;2024-02-21T11:52:25;15.00;99.90
40556;DHT22;26250;45.422;11.100;2024-02-21T11:54:54;15.10;99.90
40556;DHT22;26250;45.422;11.100;2024-02-21T11:57:22;15.10;99.90
40556;DHT22;26250;45.422;11.100;2024-02-21T11:59:51;15.40;99.90
40556;DHT22;26250;45.422;11.100;2024-02-21T12:02:24;15.40;99.90
40556;DHT22;26250;45.422;11.100;2024-02-21T12:04:51;15.30;99.90
40556;DHT22;26250;45.422;11.100;2024-02-21T12:07:18;15.20;99.90
40556;DHT22;26250;45.422;11.100;2024-02-21T12:09:46;15.20;99.90
40556;DHT22;26250;45.422;11.100;2024-02-21T12:12:13;15.30;99.90
40556;DHT22;26250;45.422;11.100;2024-02-21T12:14:39;15.30;99.90
40556;DHT22;26250;45.422;11.100;2024-02-21T12:17:06;15.30;99.90
40556;DHT22;26250;45.422;11.100;2024-02-21T12:19:34;15.50;99.90
40556;DHT22;26250;45.422;11.100;2024-02-21T12:22:02;15.40;99.90
40556;DHT22;26250;45.422;11.100;2024-02-21T12:24:33;15.50;99.90
40556;DHT22;26250;45.422;11.100;2024-02-21T12:27:00;15.70;99.90
40556;DHT22;26250;45.422;11.100;2024-02-21T12:29:30;15.80;99.90
40556;DHT22;26250;45.422;11.100;2024-02-21T12:31:57;15.70;99.90
40556;DHT22;26250;45.422;11.100;2024-02-21T12:34:24;15.60;99.90
40556;DHT22;26250;45.422;11.100;2024-02-21T12:37:10;15.80;99.90
40556;DHT22;26250;45.422;11.100;2024-02-21T12:39:38;15.70;99.90
40556;DHT22;26250;45.422;11.100;2024-02-21T12:42:05;15.80;99.90
40556;DHT22;26250;45.422;11.100;2024-02-21T12:44:32;15.60;99.90
40556;DHT22;26250;45.422;11.100;2024-02-21T12:46:59;15.60;99.90
40556;DHT22;26250;45.422;11.100;2024-02-21T12:49:26;15.70;99.90
40556;DHT22;26250;45.422;11.100;2024-02-21T12:51:56;15.70;99.90
40556;DHT22;26250;45.422;11.100;2024-02-21T12:54:23;15.60;99.90
40556;DHT22;26250;45.422;11.100;2024-02-21T12:56:50;15.50;99.90
40556;DHT22;26250;45.422;11.100;2024-02-21T12:59:18;15.80;99.90
40556;DHT22;26250;45.422;11.100;2024-02-21T13:01:45;16.00;99.90
40556;DHT22;26250;45.422;11.100;2024-02-21T13:04:12;16.00;99.90
40556;DHT22;26250;45.422;11.100;2024-02-21T13:06:39;15.90;99.90
40556;DHT22;26250;45.422;11.100;2024-02-21T13:09:06;15.80;99.90
40556;DHT22;26250;45.422;11.100;2024-02-21T13:11:35;15.80;99.90
40556;DHT22;26250;45.422;11.100;2024-02-21T13:14:02;15.60;99.90
40556;DHT22;26250;45.422;11.100;2024-02-21T13:16:29;15.80;99.90
40556;DHT22;26250;45.422;11.100;2024-02-21T13:18:56;16.00;99.90
40556;DHT22;26250;45.422;11.100;2024-02-21T13:21:23;15.80;99.90
40556;DHT22;26250;45.422;11.100;2024-02-21T13:23:50;15.80;99.40
40556;DHT22;26250;45.422;11.100;2024-02-21T13:26:17;15.90;99.90
40556;DHT22;26250;45.422;11.100;2024-02-21T13:28:44;15.80;99.90
40556;DHT22;26250;45.422;11.100;2024-02-21T13:31:12;15.70;99.90
40556;DHT22;26250;45.422;11.100;2024-02-21T13:33:39;15.70;99.90
40556;DHT22;26250;45.422;11.100;2024-02-21T13:36:06;15.60;99.90
40556;DHT22;26250;45.422;11.100;2024-02-21T13:38:33;15.80;99.90
40556;DHT22;26250;45.422;11.100;2024-02-21T13:41:00;15.80;99.90
40556;DHT22;26250;45.422;11.100;2024-02-21T13:43:28;16.00;99.90
40556;DHT22;26250;45.422;11.100;2024-02-21T13:46:02;15.80;99.90
40556;DHT22;26250;45.422;11.100;2024-02-21T13:48:36;15.90;99.90
40556;DHT22;26250;45.422;11.100;2024-02-21T13:51:04;16.00;99.90
40556;DHT22;26250;45.422;11.100;2024-02-21T13:53:31;16.10;99.90
40556;DHT22;26250;45.422;11.100;2024-02-21T13:55:58;16.00;99.90
40556;DHT22;26250;45.422;11.100;2024-02-21T13:58:25;15.70;99.90
40556;DHT22;26250;45.422;11.100;2024-02-21T14:00:53;15.70;99.90
40556;DHT22;26250;45.422;11.100;2024-02-21T14:03:20;15.90;99.90
40556;DHT22;26250;45.422;11.100;2024-02-21T14:05:48;16.10;99.90
40556;DHT22;26250;45.422;11.100;2024-02-21T14:08:17;16.00;99.90
40556;DHT22;26250;45.422;11.100;2024-02-21T14:10:44;15.90;99.90
40556;DHT22;26250;45.422;11.100;2024-02-21T14:13:12;15.90;99.90
40556;DHT22;26250;45.422;11.100;2024-02-21T14:15:41;15.80;99.90
40556;DHT22;26250;45.422;11.100;2024-02-21T14:18:09;15.70;99.90
40556;DHT22;26250;45.422;11.100;2024-02-21T14:20:37;15.90;99.90
40556;DHT22;26250;45.422;11.100;2024-02-21T14:23:04;16.00;99.90
40556;DHT22;26250;45.422;11.100;2024-02-21T14:25:31;15.80;99.90
40556;DHT22;26250;45.422;11.100;2024-02-21T14:28:00;15.80;99.90
40556;DHT22;26250;45.422;11.100;2024-02-21T14:30:27;15.80;99.90
40556;DHT22;26250;45.422;11.100;2024-02-21T14:32:55;15.80;99.90
40556;DHT22;26250;45.422;11.100;2024-02-21T14:35:22;15.90;99.90
40556;DHT22;26250;45.422;11.100;2024-02-21T14:37:49;15.80;99.90
40556;DHT22;26250;45.422;11.100;2024-02-21T14:40:16;15.70;99.90
40556;DHT22;26250;45.422;11.100;2024-02-21T14:42:43;15.70;99.90
40556;DHT22;26250;45.422;11.100;2024-02-21T14:45:10;15.80;99.90
40556;DHT22;26250;45.422;11.100;2024-02-21T14:47:37;15.70;99.90
40556;DHT22;26250;45.422;11.100;2024-02-21T14:50:04;15.70;99.90
40556;DHT22;26250;45.422;11.100;2024-02-21T14:52:32;15.70;98.70
40556;DHT22;26250;45.422;11.100;2024-02-21T14:55:03;15.70;98.50
40556;DHT22;26250;45.422;11.100;2024-02-21T14:57:32;15.70;97.40
40556;DHT22;26250;45.422;11.100;2024-02-21T14:59:59;15.60;99.50
40556;DHT22;26250;45.422;11.100;2024-02-21T15:02:27;15.60;99.90
40556;DHT22;26250;45.422;11.100;2024-02-21T15:04:56;15.50;99.90
40556;DHT22;26250;45.422;11.100;2024-02-21T15:07:23;15.50;99.90
40556;DHT22;26250;45.422;11.100;2024-02-21T15:09:54;15.40;99.90
40556;DHT22;26250;45.422;11.100;2024-02-21T15:12:20;15.40;99.90
40556;DHT22;26250;45.422;11.100;2024-02-21T15:14:50;15.50;99.90
40556;DHT22;26250;45.422;11.100;2024-02-21T15:17:18;15.40;99.90
40556;DHT22;26250;45.422;11.100;2024-02-21T15:19:45;15.40;99.90
40556;DHT22;26250;45.422;11.100;2024-02-21T15:22:13;15.30;99.20
40556;DHT22;26250;45.422;11.100;2024-02-21T15:24:40;15.40;99.40
40556;DHT22;26250;45.422;11.100;2024-02-21T15:27:08;15.20;99.90
40556;DHT22;26250;45.422;11.100;2024-02-21T15:29:36;15.20;99.90
40556;DHT22;26250;45.422;11.100;2024-02-21T15:32:03;15.10;99.90
40556;DHT22;26250;45.422;11.100;2024-02-21T15:34:30;15.20;99.90